Akron, Iowa
Current Conditions -  °F | °C
As of 11:55 PM on Wednesday 28 Jan 2015 (Local Time) from KLRJ Reporting Station
Overcast Overcast  
Wind Chill: 24°   Ceiling: 1400
Heat Index: 36°   Visibility: 10mi
Dew Point: 32°   Wind: 24mph
Humidity: 87%   Direction: 340°NNW
Pressure: 30"   Gusts: 35mph
Location:  42.83°N, 96.56°W
Report Text: KLRJ 290555Z AUTO 34021G30KT 10SM OVC014 02/00 A3000 RMK AO2
Loading
Personal Weather Stations






























Interactive Weather Map New forecast layout! Learn more

10-Day Weather Forecast

Advertisements
Track Severe Weather on mobile